sensor_id;sensor_type;location;lat;lon;timestamp;pressure;altitude;pressure_sealevel;temperature;humidity
45941;BME280;31858;46.008;8.978;2023-04-08T00:02:02;94347.78;;;6.66;100.00
45941;BME280;31858;46.008;8.978;2023-04-08T00:12:04;94356.31;;;6.55;100.00
45941;BME280;31858;46.008;8.978;2023-04-08T00:22:07;94352.56;;;6.37;100.00
45941;BME280;31858;46.008;8.978;2023-04-08T00:32:08;94354.66;;;6.28;100.00
45941;BME280;31858;46.008;8.978;2023-04-08T00:42:11;94343.16;;;6.20;100.00
45941;BME280;31858;46.008;8.978;2023-04-08T00:52:13;94337.09;;;6.20;100.00
45941;BME280;31858;46.008;8.978;2023-04-08T01:02:24;94327.28;;;6.20;100.00
45941;BME280;31858;46.008;8.978;2023-04-08T01:12:29;94345.94;;;6.08;100.00
45941;BME280;31858;46.008;8.978;2023-04-08T01:22:43;94338.06;;;5.93;100.00
45941;BME280;31858;46.008;8.978;2023-04-08T01:32:48;94340.94;;;5.87;100.00
45941;BME280;31858;46.008;8.978;2023-04-08T01:42:54;94332.50;;;5.82;100.00
45941;BME280;31858;46.008;8.978;2023-04-08T01:52:59;94334.31;;;5.78;100.00
45941;BME280;31858;46.008;8.978;2023-04-08T02:03:01;94335.94;;;5.67;100.00
45941;BME280;31858;46.008;8.978;2023-04-08T02:13:07;94330.09;;;5.57;100.00
45941;BME280;31858;46.008;8.978;2023-04-08T02:23:13;94333.66;;;5.49;100.00
45941;BME280;31858;46.008;8.978;2023-04-08T02:33:19;94344.41;;;5.56;100.00
45941;BME280;31858;46.008;8.978;2023-04-08T02:43:22;94350.88;;;5.59;100.00
45941;BME280;31858;46.008;8.978;2023-04-08T02:53:30;94340.88;;;5.68;100.00
45941;BME280;31858;46.008;8.978;2023-04-08T03:03:31;94346.72;;;5.42;100.00
45941;BME280;31858;46.008;8.978;2023-04-08T03:13:34;94354.03;;;5.49;100.00
45941;BME280;31858;46.008;8.978;2023-04-08T03:23:36;94347.66;;;5.34;100.00
45941;BME280;31858;46.008;8.978;2023-04-08T03:33:39;94360.63;;;5.23;100.00
45941;BME280;31858;46.008;8.978;2023-04-08T03:43:40;94368.19;;;5.25;100.00
45941;BME280;31858;46.008;8.978;2023-04-08T03:53:43;94361.63;;;5.35;100.00
45941;BME280;31858;46.008;8.978;2023-04-08T04:03:45;94367.88;;;5.11;100.00
45941;BME280;31858;46.008;8.978;2023-04-08T04:13:48;94365.59;;;5.09;100.00
45941;BME280;31858;46.008;8.978;2023-04-08T04:23:49;94367.78;;;5.23;100.00
45941;BME280;31858;46.008;8.978;2023-04-08T04:33:53;94365.56;;;5.25;100.00
45941;BME280;31858;46.008;8.978;2023-04-08T04:43:54;94376.81;;;5.22;100.00
45941;BME280;31858;46.008;8.978;2023-04-08T04:53:57;94369.50;;;5.15;100.00
45941;BME280;31858;46.008;8.978;2023-04-08T05:03:59;94363.78;;;5.13;100.00
45941;BME280;31858;46.008;8.978;2023-04-08T05:14:02;94369.47;;;5.31;100.00
45941;BME280;31858;46.008;8.978;2023-04-08T05:24:03;94376.63;;;5.31;100.00
45941;BME280;31858;46.008;8.978;2023-04-08T05:34:06;94378.88;;;5.13;100.00
45941;BME280;31858;46.008;8.978;2023-04-08T05:44:08;94380.31;;;5.26;100.00
45941;BME280;31858;46.008;8.978;2023-04-08T05:54:11;94385.34;;;5.15;100.00
45941;BME280;31858;46.008;8.978;2023-04-08T06:04:12;94389.59;;;5.36;100.00
45941;BME280;31858;46.008;8.978;2023-04-08T06:14:18;94407.66;;;5.34;100.00
45941;BME280;31858;46.008;8.978;2023-04-08T06:24:19;94404.09;;;5.42;100.00
45941;BME280;31858;46.008;8.978;2023-04-08T06:34:22;94403.41;;;5.61;100.00
45941;BME280;31858;46.008;8.978;2023-04-08T06:44:24;94392.97;;;5.83;100.00
45941;BME280;31858;46.008;8.978;2023-04-08T06:54:27;94391.31;;;6.10;100.00
45941;BME280;31858;46.008;8.978;2023-04-08T07:04:28;94394.00;;;6.30;100.00
45941;BME280;31858;46.008;8.978;2023-04-08T07:14:32;94400.78;;;6.11;100.00
45941;BME280;31858;46.008;8.978;2023-04-08T07:24:33;94401.50;;;5.93;100.00
45941;BME280;31858;46.008;8.978;2023-04-08T07:34:36;94399.09;;;5.87;100.00
45941;BME280;31858;46.008;8.978;2023-04-08T07:44:38;94394.94;;;5.86;100.00
45941;BME280;31858;46.008;8.978;2023-04-08T07:54:41;94396.16;;;5.89;100.00
45941;BME280;31858;46.008;8.978;2023-04-08T08:04:43;94390.81;;;6.40;100.00
45941;BME280;31858;46.008;8.978;2023-04-08T08:14:45;94388.25;;;6.85;100.00
45941;BME280;31858;46.008;8.978;2023-04-08T08:24:47;94391.09;;;6.96;100.00
45941;BME280;31858;46.008;8.978;2023-04-08T08:34:50;94391.94;;;7.00;100.00
45941;BME280;31858;46.008;8.978;2023-04-08T08:44:53;94401.09;;;7.26;100.00
45941;BME280;31858;46.008;8.978;2023-04-08T08:54:59;94395.50;;;7.53;100.00
45941;BME280;31858;46.008;8.978;2023-04-08T09:05:02;94401.13;;;7.75;100.00
45941;BME280;31858;46.008;8.978;2023-04-08T09:15:07;94407.19;;;8.28;100.00
45941;BME280;31858;46.008;8.978;2023-04-08T09:25:21;94401.78;;;8.47;83.71
45941;BME280;31858;46.008;8.978;2023-04-08T09:35:25;94391.34;;;8.62;75.62
45941;BME280;31858;46.008;8.978;2023-04-08T09:45:27;94376.53;;;8.94;67.69
45941;BME280;31858;46.008;8.978;2023-04-08T09:55:32;94387.34;;;9.60;85.89
45941;BME280;31858;46.008;8.978;2023-04-08T10:05:36;94386.22;;;10.12;73.17
45941;BME280;31858;46.008;8.978;2023-04-08T10:15:40;94375.75;;;10.48;68.04
45941;BME280;31858;46.008;8.978;2023-04-08T10:25:43;94369.09;;;11.03;65.88
45941;BME280;31858;46.008;8.978;2023-04-08T10:35:50;94365.38;;;11.51;70.59
45941;BME280;31858;46.008;8.978;2023-04-08T10:45:53;94345.91;;;11.71;62.52
45941;BME280;31858;46.008;8.978;2023-04-08T10:56:03;94343.25;;;11.93;57.26
45941;BME280;31858;46.008;8.978;2023-04-08T11:06:06;94339.00;;;12.20;55.33
45941;BME280;31858;46.008;8.978;2023-04-08T11:16:09;94324.75;;;12.59;53.72
45941;BME280;31858;46.008;8.978;2023-04-08T11:26:12;94333.97;;;12.44;48.00
45941;BME280;31858;46.008;8.978;2023-04-08T11:36:17;94325.22;;;12.32;48.81
45941;BME280;31858;46.008;8.978;2023-04-08T11:46:20;94321.41;;;12.30;46.43
45941;BME280;31858;46.008;8.978;2023-04-08T11:56:24;94317.13;;;12.54;44.17
45941;BME280;31858;46.008;8.978;2023-04-08T12:06:26;94308.41;;;13.08;48.25
45941;BME280;31858;46.008;8.978;2023-04-08T12:16:29;94308.75;;;13.69;42.13
45941;BME280;31858;46.008;8.978;2023-04-08T12:26:31;94311.88;;;13.05;43.28
45941;BME280;31858;46.008;8.978;2023-04-08T12:36:33;94293.84;;;13.68;48.42
45941;BME280;31858;46.008;8.978;2023-04-08T12:46:35;94292.44;;;13.98;45.09
45941;BME280;31858;46.008;8.978;2023-04-08T12:56:38;94299.75;;;13.49;41.78
45941;BME280;31858;46.008;8.978;2023-04-08T13:06:40;94284.47;;;13.46;48.22
45941;BME280;31858;46.008;8.978;2023-04-08T13:16:42;94280.75;;;14.15;46.32
45941;BME280;31858;46.008;8.978;2023-04-08T13:26:44;94275.22;;;14.63;48.74
45941;BME280;31858;46.008;8.978;2023-04-08T13:36:47;94269.69;;;14.47;46.37
45941;BME280;31858;46.008;8.978;2023-04-08T13:46:48;94272.25;;;14.24;47.54
45941;BME280;31858;46.008;8.978;2023-04-08T13:56:52;94254.75;;;14.77;49.17
45941;BME280;31858;46.008;8.978;2023-04-08T14:06:53;94263.19;;;15.29;48.83
45941;BME280;31858;46.008;8.978;2023-04-08T14:16:58;94265.84;;;14.48;50.65
45941;BME280;31858;46.008;8.978;2023-04-08T14:27:00;94269.47;;;13.97;51.09
45941;BME280;31858;46.008;8.978;2023-04-08T14:37:04;94275.91;;;13.65;51.77
45941;BME280;31858;46.008;8.978;2023-04-08T14:47:05;94279.06;;;13.53;53.55
45941;BME280;31858;46.008;8.978;2023-04-08T14:57:08;94275.34;;;13.40;55.51
45941;BME280;31858;46.008;8.978;2023-04-08T15:07:10;94278.84;;;13.33;52.56
45941;BME280;31858;46.008;8.978;2023-04-08T15:17:13;94276.91;;;13.37;49.90
45941;BME280;31858;46.008;8.978;2023-04-08T15:27:16;94282.03;;;13.62;48.40
45941;BME280;31858;46.008;8.978;2023-04-08T15:37:20;94283.41;;;13.81;43.24
45941;BME280;31858;46.008;8.978;2023-04-08T15:47:22;94279.47;;;13.93;42.68
45941;BME280;31858;46.008;8.978;2023-04-08T15:57:25;94288.28;;;14.27;35.82
45941;BME280;31858;46.008;8.978;2023-04-08T16:07:27;94297.78;;;14.66;33.68
45941;BME280;31858;46.008;8.978;2023-04-08T16:17:30;94301.84;;;14.47;32.52
45941;BME280;31858;46.008;8.978;2023-04-08T16:27:32;94300.91;;;14.61;32.02
45941;BME280;31858;46.008;8.978;2023-04-08T16:37:34;94313.03;;;14.38;32.68
45941;BME280;31858;46.008;8.978;2023-04-08T16:47:36;94325.56;;;14.15;32.68
45941;BME280;31858;46.008;8.978;2023-04-08T16:57:39;94342.81;;;14.10;32.80
45941;BME280;31858;46.008;8.978;2023-04-08T17:07:41;94356.50;;;13.78;33.69
45941;BME280;31858;46.008;8.978;2023-04-08T17:17:44;94364.72;;;13.53;35.57
45941;BME280;31858;46.008;8.978;2023-04-08T17:27:47;94370.69;;;13.71;33.32
45941;BME280;31858;46.008;8.978;2023-04-08T17:37:49;94371.28;;;13.45;33.61
45941;BME280;31858;46.008;8.978;2023-04-08T17:47:51;94390.50;;;13.26;33.82
45941;BME280;31858;46.008;8.978;2023-04-08T17:57:54;94396.38;;;12.99;34.77
45941;BME280;31858;46.008;8.978;2023-04-08T18:07:56;94411.31;;;12.86;34.49
45941;BME280;31858;46.008;8.978;2023-04-08T18:17:59;94419.78;;;12.67;34.73
45941;BME280;31858;46.008;8.978;2023-04-08T18:28:01;94440.84;;;12.51;35.46
45941;BME280;31858;46.008;8.978;2023-04-08T18:38:04;94451.94;;;12.38;35.72
45941;BME280;31858;46.008;8.978;2023-04-08T18:48:06;94463.00;;;12.19;36.10
45941;BME280;31858;46.008;8.978;2023-04-08T18:58:09;94475.22;;;12.17;36.28
45941;BME280;31858;46.008;8.978;2023-04-08T19:08:10;94496.19;;;12.04;36.13
45941;BME280;31858;46.008;8.978;2023-04-08T19:18:13;94515.28;;;12.06;36.54
45941;BME280;31858;46.008;8.978;2023-04-08T19:28:15;94520.59;;;11.92;36.41
45941;BME280;31858;46.008;8.978;2023-04-08T19:38:18;94542.34;;;11.87;35.65
45941;BME280;31858;46.008;8.978;2023-04-08T19:48:20;94533.94;;;11.81;36.18
45941;BME280;31858;46.008;8.978;2023-04-08T19:58:23;94548.81;;;11.82;37.17
45941;BME280;31858;46.008;8.978;2023-04-08T20:08:25;94559.03;;;11.62;37.12
45941;BME280;31858;46.008;8.978;2023-04-08T20:18:27;94573.50;;;11.51;42.45
45941;BME280;31858;46.008;8.978;2023-04-08T20:28:29;94577.78;;;10.93;53.32
45941;BME280;31858;46.008;8.978;2023-04-08T20:38:32;94587.16;;;10.73;97.60
45941;BME280;31858;46.008;8.978;2023-04-08T20:48:36;94590.03;;;10.09;100.00
45941;BME280;31858;46.008;8.978;2023-04-08T20:58:38;94602.00;;;9.89;100.00
45941;BME280;31858;46.008;8.978;2023-04-08T21:08:40;94601.22;;;9.52;100.00
45941;BME280;31858;46.008;8.978;2023-04-08T21:18:43;94618.59;;;9.15;100.00
45941;BME280;31858;46.008;8.978;2023-04-08T21:28:45;94621.28;;;8.89;100.00
45941;BME280;31858;46.008;8.978;2023-04-08T21:38:48;94640.19;;;8.84;100.00
45941;BME280;31858;46.008;8.978;2023-04-08T21:48:49;94648.53;;;8.60;100.00
45941;BME280;31858;46.008;8.978;2023-04-08T21:58:52;94646.34;;;8.65;100.00
45941;BME280;31858;46.008;8.978;2023-04-08T22:08:54;94663.06;;;8.43;100.00
45941;BME280;31858;46.008;8.978;2023-04-08T22:18:57;94658.69;;;8.54;100.00
45941;BME280;31858;46.008;8.978;2023-04-08T22:28:58;94665.66;;;8.62;100.00
45941;BME280;31858;46.008;8.978;2023-04-08T22:39:01;94669.38;;;8.58;100.00
45941;BME280;31858;46.008;8.978;2023-04-08T22:49:03;94661.78;;;8.56;100.00
45941;BME280;31858;46.008;8.978;2023-04-08T22:59:06;94677.16;;;8.70;100.00
45941;BME280;31858;46.008;8.978;2023-04-08T23:09:08;94680.25;;;8.72;100.00
45941;BME280;31858;46.008;8.978;2023-04-08T23:19:11;94679.34;;;8.64;100.00
45941;BME280;31858;46.008;8.978;2023-04-08T23:29:12;94682.66;;;8.35;100.00
45941;BME280;31858;46.008;8.978;2023-04-08T23:39:16;94681.38;;;8.29;100.00
45941;BME280;31858;46.008;8.978;2023-04-08T23:49:18;94675.47;;;8.16;100.00
45941;BME280;31858;46.008;8.978;2023-04-08T23:59:20;94682.31;;;7.98;100.00
